createdAt,value
2018-03-01T00:01:07.115Z,94561
2018-03-01T00:03:35.422Z,94560
2018-03-01T00:06:03.834Z,94553
2018-03-01T00:08:32.945Z,94557
2018-03-01T00:11:01.322Z,94555
2018-03-01T00:13:29.742Z,94558
2018-03-01T00:15:58.075Z,94561
2018-03-01T00:18:26.421Z,94562
2018-03-01T00:20:54.843Z,94545
2018-03-01T00:23:23.183Z,94537
2018-03-01T00:25:52.310Z,94534
2018-03-01T00:28:20.722Z,94526
2018-03-01T00:30:49.083Z,94519
2018-03-01T00:33:17.448Z,94522
2018-03-01T00:35:45.871Z,94524
2018-03-01T00:38:14.182Z,94523
2018-03-01T00:40:43.302Z,94521
2018-03-01T00:43:11.722Z,94519
2018-03-01T00:45:40.125Z,94503
2018-03-01T00:48:09.302Z,94500
2018-03-01T00:50:37.723Z,94492
2018-03-01T00:53:06.082Z,94488
2018-03-01T00:55:35.183Z,94481
2018-03-01T00:58:04.328Z,94472
2018-03-01T01:00:32.695Z,94466
2018-03-01T01:03:01.095Z,94454
2018-03-01T01:05:29.510Z,94446
2018-03-01T01:07:58.579Z,94437
2018-03-01T01:10:26.920Z,94437
2018-03-01T01:12:55.322Z,94426
2018-03-01T01:15:23.656Z,94424
2018-03-01T01:17:52.106Z,94422
2018-03-01T01:20:20.535Z,94418
2018-03-01T01:22:48.863Z,94396
2018-03-01T01:25:17.185Z,94393
2018-03-01T01:27:45.562Z,94389
2018-03-01T01:30:13.870Z,94386
2018-03-01T01:32:42.203Z,94386
2018-03-01T01:35:10.623Z,94386
2018-03-01T01:37:39.043Z,94377
2018-03-01T01:40:07.435Z,94378
2018-03-01T01:42:35.822Z,94371
2018-03-01T01:45:04.237Z,94363
2018-03-01T01:47:32.583Z,94363
2018-03-01T01:50:01.087Z,94362
2018-03-01T01:52:29.442Z,94353
2018-03-01T01:54:57.799Z,94351
2018-03-01T01:57:26.942Z,94349
2018-03-01T01:59:55.315Z,94338
2018-03-01T02:02:24.537Z,94336
2018-03-01T02:04:52.857Z,94333
2018-03-01T02:07:21.140Z,94334
2018-03-01T02:09:49.466Z,94329
2018-03-01T02:12:17.788Z,94336
2018-03-01T02:14:46.077Z,94332
2018-03-01T02:17:14.436Z,94327
2018-03-01T02:19:42.712Z,94315
2018-03-01T02:22:11.039Z,94318
2018-03-01T02:24:39.439Z,94316
2018-03-01T02:27:07.756Z,94317
2018-03-01T02:29:36.040Z,94308
2018-03-01T02:32:04.380Z,94302
2018-03-01T02:34:32.737Z,94294
2018-03-01T02:37:01.049Z,94290
2018-03-01T02:39:29.417Z,94291
2018-03-01T02:41:57.757Z,94295
2018-03-01T02:44:26.878Z,94295
2018-03-01T02:46:55.183Z,94294
2018-03-01T02:49:23.484Z,94277
2018-03-01T02:51:51.824Z,94275
2018-03-01T02:54:20.173Z,94263
2018-03-01T02:56:48.459Z,94258
2018-03-01T02:59:16.793Z,94266
2018-03-01T03:01:45.100Z,94262
2018-03-01T03:04:13.483Z,94250
2018-03-01T03:06:41.816Z,94239
2018-03-01T03:09:10.138Z,94232
2018-03-01T03:11:38.476Z,94223
2018-03-01T03:14:06.785Z,94230
2018-03-01T03:16:35.084Z,94221
2018-03-01T03:19:03.445Z,94212
2018-03-01T03:21:31.739Z,94204
2018-03-01T03:24:00.086Z,94200
2018-03-01T03:26:28.404Z,94189
2018-03-01T03:28:56.689Z,94199
2018-03-01T03:31:25.009Z,94203
2018-03-01T03:33:54.098Z,94197
2018-03-01T03:36:23.208Z,94199
2018-03-01T03:38:52.260Z,94199
2018-03-01T03:41:20.560Z,94188
2018-03-01T03:43:49.681Z,94180
2018-03-01T03:46:17.979Z,94178
2018-03-01T03:48:46.365Z,94185
2018-03-01T03:51:14.708Z,94175
2018-03-01T03:53:43.024Z,94170
2018-03-01T03:56:11.362Z,94164
2018-03-01T03:58:39.701Z,94156
2018-03-01T04:01:08.033Z,94157
2018-03-01T04:03:36.403Z,94149
2018-03-01T04:06:04.733Z,94146
2018-03-01T04:08:33.046Z,94145
2018-03-01T04:11:01.377Z,94134
2018-03-01T04:13:29.700Z,94128
2018-03-01T04:15:58.752Z,94134
2018-03-01T04:18:27.074Z,94137
2018-03-01T04:20:55.377Z,94133
2018-03-01T04:23:23.689Z,94136
2018-03-01T04:25:52.024Z,94129
2018-03-01T04:28:20.337Z,94126
2018-03-01T04:30:48.620Z,94116
2018-03-01T04:33:16.941Z,94117
2018-03-01T04:35:45.250Z,94114
2018-03-01T04:38:13.600Z,94118
2018-03-01T04:40:41.893Z,94099
2018-03-01T04:43:10.188Z,94108
2018-03-01T04:45:38.502Z,94103
2018-03-01T04:48:06.785Z,94108
2018-03-01T04:50:35.923Z,94108
2018-03-01T04:53:04.245Z,94104
2018-03-01T04:55:33.316Z,94106
2018-03-01T04:58:01.646Z,94105
2018-03-01T05:00:30.010Z,94102
2018-03-01T05:03:01.208Z,94103
2018-03-01T05:05:29.501Z,94096
2018-03-01T05:07:57.785Z,94099
2018-03-01T05:10:26.087Z,94086
2018-03-01T05:12:55.205Z,94099
2018-03-01T05:15:23.552Z,94095
2018-03-01T05:17:52.630Z,94092
2018-03-01T05:20:20.980Z,94080
2018-03-01T05:22:49.309Z,94079
2018-03-01T05:25:18.374Z,94078
2018-03-01T05:27:46.765Z,94084
2018-03-01T05:30:15.815Z,94080
2018-03-01T05:32:44.128Z,94073
2018-03-01T05:35:13.341Z,94067
2018-03-01T05:37:42.440Z,94073
2018-03-01T05:40:11.612Z,94069
2018-03-01T05:42:39.908Z,94063
2018-03-01T05:45:09.037Z,94069
2018-03-01T05:47:37.403Z,94065
2018-03-01T05:50:05.728Z,94062
2018-03-01T05:52:34.872Z,94062
2018-03-01T05:55:03.212Z,94052
2018-03-01T05:57:32.312Z,94042
2018-03-01T06:00:00.824Z,94044
2018-03-01T06:02:29.306Z,94046
2018-03-01T06:04:57.678Z,94055
2018-03-01T06:07:26.752Z,94052
2018-03-01T06:09:55.166Z,94040
2018-03-01T06:12:23.501Z,94053
2018-03-01T06:14:51.837Z,94060
2018-03-01T06:17:20.201Z,94052
2018-03-01T06:19:48.624Z,94039
2018-03-01T06:22:16.932Z,94052
2018-03-01T06:24:46.017Z,94048
2018-03-01T06:27:15.329Z,94044
2018-03-01T06:29:44.018Z,94038
2018-03-01T06:32:12.447Z,94021
2018-03-01T06:34:40.761Z,94016
2018-03-01T06:37:09.897Z,94019
2018-03-01T06:39:38.240Z,94025
2018-03-01T06:42:07.615Z,94024
2018-03-01T06:44:35.898Z,94024
2018-03-01T06:47:04.188Z,94022
2018-03-01T06:49:33.309Z,94016
2018-03-01T06:52:03.037Z,94022
2018-03-01T06:54:31.408Z,94025
2018-03-01T06:56:59.740Z,94019
2018-03-01T06:59:28.053Z,94011
2018-03-01T07:01:56.375Z,94003
2018-03-01T07:04:24.685Z,94001
2018-03-01T07:06:53.824Z,93999
2018-03-01T07:09:22.184Z,93999
2018-03-01T07:11:50.497Z,93993
2018-03-01T07:14:18.855Z,93993
2018-03-01T07:16:47.153Z,93993
2018-03-01T07:19:15.605Z,93990
2018-03-01T07:21:43.985Z,93985
2018-03-01T07:24:12.386Z,93985
2018-03-01T07:26:40.777Z,93982
2018-03-01T07:29:09.105Z,93981
2018-03-01T07:31:37.496Z,93980
2018-03-01T07:34:06.354Z,93978
2018-03-01T07:36:35.520Z,93974
2018-03-01T07:39:03.952Z,93964
2018-03-01T07:41:32.533Z,93962
2018-03-01T07:44:01.486Z,93958
2018-03-01T07:46:29.788Z,93951
2018-03-01T07:48:59.263Z,93947
2018-03-01T07:51:27.632Z,93949
2018-03-01T07:53:55.929Z,93949
2018-03-01T07:56:25.085Z,93943
2018-03-01T07:58:53.396Z,93945
2018-03-01T08:01:21.727Z,93937
2018-03-01T08:03:50.133Z,93924
2018-03-01T08:06:18.513Z,93923
2018-03-01T08:08:47.942Z,93918
2018-03-01T08:11:17.095Z,93926
2018-03-01T08:13:45.436Z,93920
2018-03-01T08:16:14.203Z,93910
2018-03-01T08:18:43.291Z,93904
2018-03-01T08:21:11.637Z,93912
2018-03-01T08:23:39.988Z,93910
2018-03-01T08:26:08.307Z,93906
2018-03-01T08:28:36.668Z,93902
2018-03-01T08:31:05.780Z,93895
2018-03-01T08:33:34.149Z,93900
2018-03-01T08:36:02.462Z,93890
2018-03-01T08:38:31.533Z,93881
2018-03-01T08:40:59.872Z,93878
2018-03-01T08:43:28.214Z,93881
2018-03-01T08:45:57.368Z,93874
2018-03-01T08:48:26.378Z,93871
2018-03-01T08:50:54.720Z,93861
2018-03-01T08:53:23.057Z,93853
2018-03-01T08:55:52.168Z,93845
2018-03-01T08:58:20.533Z,93840
2018-03-01T09:00:49.645Z,93837
2018-03-01T09:03:17.980Z,93835
2018-03-01T09:05:46.346Z,93830
2018-03-01T09:08:14.669Z,93823
2018-03-01T09:10:43.116Z,93826
2018-03-01T09:13:11.459Z,93825
2018-03-01T09:15:40.533Z,93812
2018-03-01T09:18:08.885Z,93804
2018-03-01T09:20:38.046Z,93813
2018-03-01T09:23:06.426Z,93809
2018-03-01T09:25:34.756Z,93812
2018-03-01T09:28:03.069Z,93810
2018-03-01T09:30:31.375Z,93805
2018-03-01T09:32:59.703Z,93811
2018-03-01T09:35:28.108Z,93810
2018-03-01T09:37:56.818Z,93806
2018-03-01T09:40:25.211Z,93809
2018-03-01T09:42:53.553Z,93803
2018-03-01T09:45:21.946Z,93809
2018-03-01T09:47:50.298Z,93806
2018-03-01T09:50:19.389Z,93791
2018-03-01T09:52:47.731Z,93793
2018-03-01T09:55:16.085Z,93792
2018-03-01T09:57:45.737Z,93789
2018-03-01T10:00:14.097Z,93782
2018-03-01T10:02:42.447Z,93796
2018-03-01T10:05:10.812Z,93799
2018-03-01T10:07:39.188Z,93799
2018-03-01T10:10:07.497Z,93792
2018-03-01T10:12:35.865Z,93801
2018-03-01T10:15:05.086Z,93792
2018-03-01T10:17:33.471Z,93773
2018-03-01T10:20:01.832Z,93782
2018-03-01T10:22:30.146Z,93795
2018-03-01T10:24:58.515Z,93791
2018-03-01T10:27:26.877Z,93781
2018-03-01T10:29:55.186Z,93784
2018-03-01T10:32:23.510Z,93768
2018-03-01T10:34:51.850Z,93769
2018-03-01T10:37:20.225Z,93768
2018-03-01T10:39:48.601Z,93769
2018-03-01T10:42:16.900Z,93772
2018-03-01T10:44:46.240Z,93762
2018-03-01T10:47:15.312Z,93755
2018-03-01T10:49:43.732Z,93752
2018-03-01T10:52:12.072Z,93748
2018-03-01T10:54:41.172Z,93755
2018-03-01T10:57:09.504Z,93751
2018-03-01T10:59:37.892Z,93754
2018-03-01T11:02:06.247Z,93750
2018-03-01T11:04:34.548Z,93727
2018-03-01T11:07:03.565Z,93737
2018-03-01T11:09:32.672Z,93728
2018-03-01T11:12:01.832Z,93720
2018-03-01T11:14:30.118Z,93714
2018-03-01T11:17:01.485Z,93716
2018-03-01T11:19:29.911Z,93718
2018-03-01T11:21:58.237Z,93722
2018-03-01T11:24:26.647Z,93716
2018-03-01T11:26:54.966Z,93733
2018-03-01T11:29:23.297Z,93718
2018-03-01T11:31:51.710Z,93706
2018-03-01T11:34:20.034Z,93702
2018-03-01T11:36:49.062Z,93708
2018-03-01T11:39:17.428Z,93685
2018-03-01T11:41:45.818Z,93691
2018-03-01T11:44:14.149Z,93686
2018-03-01T11:46:42.465Z,93691
2018-03-01T11:49:10.801Z,93674
2018-03-01T11:51:39.202Z,93686
2018-03-01T11:54:08.271Z,93670
2018-03-01T11:56:36.606Z,93666
2018-03-01T11:59:04.934Z,93667
2018-03-01T12:01:34.026Z,93658
2018-03-01T12:04:02.348Z,93647
2018-03-01T12:06:30.652Z,93640
2018-03-01T12:08:58.988Z,93640
2018-03-01T12:11:27.270Z,93631
2018-03-01T12:13:55.556Z,93628
2018-03-01T12:16:23.906Z,93621
2018-03-01T12:18:52.948Z,93619
2018-03-01T12:21:21.259Z,93621
2018-03-01T12:23:50.319Z,93606
2018-03-01T12:26:18.598Z,93616
2018-03-01T12:28:46.905Z,93620
2018-03-01T12:31:15.972Z,93594
2018-03-01T12:33:45.247Z,93593
2018-03-01T12:36:13.505Z,93604
2018-03-01T12:38:41.786Z,93600
2018-03-01T12:41:10.092Z,93600
2018-03-01T12:43:38.411Z,93590
2018-03-01T12:46:07.578Z,93597
2018-03-01T12:48:35.769Z,93593
2018-03-01T12:51:04.092Z,93601
2018-03-01T12:53:32.449Z,93582
2018-03-01T12:56:01.505Z,93584
2018-03-01T12:58:29.874Z,93581
2018-03-01T13:00:58.179Z,93576
2018-03-01T13:03:26.885Z,93572
2018-03-01T13:05:56.003Z,93562
2018-03-01T13:08:24.353Z,93577
2018-03-01T13:10:53.520Z,93566
2018-03-01T13:13:22.656Z,93561
2018-03-01T13:15:51.043Z,93573
2018-03-01T13:18:19.367Z,93564
2018-03-01T13:20:47.709Z,93566
2018-03-01T13:23:16.090Z,93576
2018-03-01T13:25:44.400Z,93559
2018-03-01T13:28:12.716Z,93562
2018-03-01T13:30:41.830Z,93562
2018-03-01T13:33:15.540Z,93574
2018-03-01T13:35:43.910Z,93563
2018-03-01T13:38:12.234Z,93582
2018-03-01T13:40:41.384Z,93581
2018-03-01T13:43:12.565Z,93580
2018-03-01T13:45:52.746Z,93565
2018-03-01T13:48:21.874Z,93576
2018-03-01T13:50:50.206Z,93584
2018-03-01T13:53:18.611Z,93586
2018-03-01T13:55:46.969Z,93584
2018-03-01T13:58:15.317Z,93578
2018-03-01T14:00:44.566Z,93599
2018-03-01T14:03:12.909Z,93594
2018-03-01T14:05:43.197Z,93580
2018-03-01T14:08:11.499Z,93579
2018-03-01T14:10:39.866Z,93585
2018-03-01T14:13:11.776Z,93584
2018-03-01T14:15:41.684Z,93585
2018-03-01T14:18:27.359Z,93584
2018-03-01T14:24:23.800Z,93571
2018-03-01T14:26:54.077Z,93582
2018-03-01T14:29:27.981Z,93586
2018-03-01T14:31:57.212Z,93585
2018-03-01T14:34:25.533Z,93588
2018-03-01T14:36:54.627Z,93593
2018-03-01T14:39:23.700Z,93588
2018-03-01T14:41:52.026Z,93587
2018-03-01T14:44:20.366Z,93588
2018-03-01T14:46:49.476Z,93595
2018-03-01T14:49:18.577Z,93582
2018-03-01T14:51:47.667Z,93599
2018-03-01T14:54:16.923Z,93595
2018-03-01T14:56:45.277Z,93589
2018-03-01T14:59:13.606Z,93585
2018-03-01T15:01:41.932Z,93578
2018-03-01T15:04:10.293Z,93579
2018-03-01T15:06:38.816Z,93581
2018-03-01T15:09:07.200Z,93581
2018-03-01T15:11:35.492Z,93579
2018-03-01T15:14:03.794Z,93577
2018-03-01T15:16:32.893Z,93578
2018-03-01T15:19:01.220Z,93571
2018-03-01T15:21:29.585Z,93579
2018-03-01T15:23:58.065Z,93566
2018-03-01T15:26:26.394Z,93578
2018-03-01T15:28:55.528Z,93579
2018-03-01T15:31:23.885Z,93586
2018-03-01T15:33:52.262Z,93580
2018-03-01T15:36:20.556Z,93586
2018-03-01T15:38:48.878Z,93581
2018-03-01T15:41:17.208Z,93588
2018-03-01T15:43:45.556Z,93589
2018-03-01T15:46:13.930Z,93587
2018-03-01T15:48:43.165Z,93589
2018-03-01T15:51:11.596Z,93591
2018-03-01T15:53:40.720Z,93596
2018-03-01T15:56:09.163Z,93589
2018-03-01T15:58:37.687Z,93594
2018-03-01T16:01:06.950Z,93591
2018-03-01T16:03:37.146Z,93588
2018-03-01T16:06:05.623Z,93588
2018-03-01T16:08:34.052Z,93591
2018-03-01T16:11:03.135Z,93588
2018-03-01T16:13:32.253Z,93581
2018-03-01T16:16:00.576Z,93588
2018-03-01T16:18:28.999Z,93584
2018-03-01T16:20:58.083Z,93592
2018-03-01T16:23:27.250Z,93597
2018-03-01T16:25:55.766Z,93594
2018-03-01T16:28:25.056Z,93585
2018-03-01T16:30:54.325Z,93582
2018-03-01T16:33:22.628Z,93593
2018-03-01T16:35:51.737Z,93596
2018-03-01T16:38:20.854Z,93598
2018-03-01T16:40:49.197Z,93604
2018-03-01T16:43:18.312Z,93607
2018-03-01T16:45:46.720Z,93595
2018-03-01T16:48:15.100Z,93597
2018-03-01T16:50:44.411Z,93610
2018-03-01T16:53:13.623Z,93618
2018-03-01T16:55:42.012Z,93621
2018-03-01T16:58:10.329Z,93619
2018-03-01T17:00:40.025Z,93616
2018-03-01T17:03:09.967Z,93614
2018-03-01T17:05:39.439Z,93622
2018-03-01T17:08:09.955Z,93626
2018-03-01T17:10:40.007Z,93628
2018-03-01T17:13:08.986Z,93629
2018-03-01T17:15:41.031Z,93636
2018-03-01T17:18:10.673Z,93637
2018-03-01T17:20:38.988Z,93634
2018-03-01T17:23:07.307Z,93633
2018-03-01T17:25:36.381Z,93636
2018-03-01T17:28:04.862Z,93639
2018-03-01T17:30:34.064Z,93640
2018-03-01T17:33:02.583Z,93638
2018-03-01T17:35:30.886Z,93639
2018-03-01T17:37:59.200Z,93642
2018-03-01T17:40:27.486Z,93638
2018-03-01T17:42:57.434Z,93639
2018-03-01T17:45:25.828Z,93641
2018-03-01T17:47:54.188Z,93650
2018-03-01T17:50:22.611Z,93650
2018-03-01T17:52:51.042Z,93654
2018-03-01T17:55:19.466Z,93646
2018-03-01T17:57:47.903Z,93655
2018-03-01T18:00:16.383Z,93648
2018-03-01T18:02:44.987Z,93652
2018-03-01T18:05:13.287Z,93652
2018-03-01T18:07:41.681Z,93652
2018-03-01T18:10:10.763Z,93653
2018-03-01T18:12:39.263Z,93649
2018-03-01T18:15:07.625Z,93646
2018-03-01T18:17:36.106Z,93642
2018-03-01T18:20:04.983Z,93643
2018-03-01T18:22:33.325Z,93640
2018-03-01T18:25:01.619Z,93641
2018-03-01T18:27:30.055Z,93639
2018-03-01T18:29:59.136Z,93647
2018-03-01T18:32:27.602Z,93643
2018-03-01T18:34:55.922Z,93639
2018-03-01T18:37:24.239Z,93640
2018-03-01T18:39:52.586Z,93639
2018-03-01T18:42:21.029Z,93639
2018-03-01T18:44:49.385Z,93637
2018-03-01T18:47:17.831Z,93636
2018-03-01T18:49:46.158Z,93631
2018-03-01T18:52:14.480Z,93635
2018-03-01T18:54:42.898Z,93630
2018-03-01T18:57:11.186Z,93632
2018-03-01T18:59:39.517Z,93632
2018-03-01T19:02:07.871Z,93625
2018-03-01T19:04:37.080Z,93627
2018-03-01T19:07:05.443Z,93623
2018-03-01T19:09:34.541Z,93618
2018-03-01T19:12:03.781Z,93619
2018-03-01T19:14:32.108Z,93619
2018-03-01T19:17:02.643Z,93615
2018-03-01T19:19:31.083Z,93623
2018-03-01T19:22:01.762Z,93625
2018-03-01T19:24:30.944Z,93624
2018-03-01T19:27:00.097Z,93618
2018-03-01T19:29:28.448Z,93623
2018-03-01T19:31:58.397Z,93627
2018-03-01T19:34:26.775Z,93624
2018-03-01T19:36:55.223Z,93630
2018-03-01T19:39:23.543Z,93627
2018-03-01T19:41:51.962Z,93622
2018-03-01T19:44:20.384Z,93616
2018-03-01T19:46:48.783Z,93626
2018-03-01T19:49:17.301Z,93626
2018-03-01T19:51:46.548Z,93619
2018-03-01T19:54:14.923Z,93623
2018-03-01T19:56:43.328Z,93617
2018-03-01T19:59:11.857Z,93622
2018-03-01T20:01:40.383Z,93625
2018-03-01T20:04:10.488Z,93622
2018-03-01T20:06:38.814Z,93620
2018-03-01T20:09:08.084Z,93624
2018-03-01T20:11:36.571Z,93627
2018-03-01T20:14:04.963Z,93625
2018-03-01T20:16:34.062Z,93626
2018-03-01T20:19:03.184Z,93620
2018-03-01T20:21:31.643Z,93615
2018-03-01T20:24:00.718Z,93617
2018-03-01T20:26:29.143Z,93617
2018-03-01T20:28:57.454Z,93619
2018-03-01T20:31:26.825Z,93622
2018-03-01T20:33:55.264Z,93622
2018-03-01T20:36:24.407Z,93608
2018-03-01T20:38:52.847Z,93614
2018-03-01T20:41:21.945Z,93618
2018-03-01T20:43:50.385Z,93614
2018-03-01T20:46:18.741Z,93610
2018-03-01T20:48:47.045Z,93609
2018-03-01T20:51:15.332Z,93615
2018-03-01T20:53:45.489Z,93613
2018-03-01T20:56:14.567Z,93610
2018-03-01T20:58:43.668Z,93610
2018-03-01T21:01:11.995Z,93609
2018-03-01T21:03:40.249Z,93607
2018-03-01T21:06:08.535Z,93601
2018-03-01T21:08:37.648Z,93601
2018-03-01T21:11:05.979Z,93600
2018-03-01T21:13:34.289Z,93605
2018-03-01T21:16:02.617Z,93602
2018-03-01T21:18:30.947Z,93596
2018-03-01T21:20:59.265Z,93593
2018-03-01T21:23:28.348Z,93590
2018-03-01T21:25:56.718Z,93591
2018-03-01T21:28:25.123Z,93586
2018-03-01T21:30:53.425Z,93584
2018-03-01T21:33:21.748Z,93584
2018-03-01T21:35:50.073Z,93578
2018-03-01T21:38:18.389Z,93576
2018-03-01T21:40:46.736Z,93576
2018-03-01T21:43:15.074Z,93569
2018-03-01T21:45:44.188Z,93565
2018-03-01T21:48:12.528Z,93568
2018-03-01T21:50:40.928Z,93563
2018-03-01T21:53:10.010Z,93565
2018-03-01T21:55:38.314Z,93562
2018-03-01T21:58:06.644Z,93552
2018-03-01T22:00:34.960Z,93559
2018-03-01T22:03:04.153Z,93554
2018-03-01T22:05:33.205Z,93550
2018-03-01T22:08:01.614Z,93555
2018-03-01T22:10:30.664Z,93546
2018-03-01T22:12:59.939Z,93552
2018-03-01T22:15:28.238Z,93552
2018-03-01T22:17:56.604Z,93553
2018-03-01T22:20:24.905Z,93547
2018-03-01T22:22:53.216Z,93554
2018-03-01T22:25:21.520Z,93544
2018-03-01T22:27:49.812Z,93549
2018-03-01T22:30:18.165Z,93538
2018-03-01T22:32:47.226Z,93531
2018-03-01T22:35:15.536Z,93529
2018-03-01T22:37:43.950Z,93527
2018-03-01T22:40:13.100Z,93526
2018-03-01T22:42:42.177Z,93523
2018-03-01T22:45:10.485Z,93517
2018-03-01T22:47:39.674Z,93520
2018-03-01T22:50:09.572Z,93515
2018-03-01T22:52:37.865Z,93511
2018-03-01T22:55:06.951Z,93510
2018-03-01T22:57:35.266Z,93509
2018-03-01T23:00:03.685Z,93509
2018-03-01T23:02:31.965Z,93507
2018-03-01T23:05:00.366Z,93502
2018-03-01T23:07:29.469Z,93500
2018-03-01T23:09:58.535Z,93499
2018-03-01T23:12:26.885Z,93502
2018-03-01T23:14:55.180Z,93506
2018-03-01T23:17:23.496Z,93498
2018-03-01T23:19:52.561Z,93496
2018-03-01T23:22:21.860Z,93499
2018-03-01T23:24:50.132Z,93490
2018-03-01T23:27:18.446Z,93484
2018-03-01T23:29:46.722Z,93486
2018-03-01T23:32:15.789Z,93487
2018-03-01T23:34:44.113Z,93483
2018-03-01T23:37:12.413Z,93477
2018-03-01T23:39:40.756Z,93474
2018-03-01T23:42:09.097Z,93474
2018-03-01T23:44:37.468Z,93470
2018-03-01T23:47:05.771Z,93462
2018-03-01T23:49:34.865Z,93457
2018-03-01T23:52:03.948Z,93449
2018-03-01T23:54:33.003Z,93446
2018-03-01T23:57:01.266Z,93440
2018-03-01T23:59:29.549Z,93435
